sensor_id;sensor_type;location;lat;lon;timestamp;P1;durP1;ratioP1;P2;durP2;ratioP2
24873;SDS011;12945;42.648;23.370;2022-10-22T00:01:03;31.55;;;20.70;;
24873;SDS011;12945;42.648;23.370;2022-10-22T00:03:29;34.45;;;21.98;;
24873;SDS011;12945;42.648;23.370;2022-10-22T00:05:54;35.58;;;22.23;;
24873;SDS011;12945;42.648;23.370;2022-10-22T00:08:19;37.65;;;22.13;;
24873;SDS011;12945;42.648;23.370;2022-10-22T00:10:45;38.30;;;22.27;;
24873;SDS011;12945;42.648;23.370;2022-10-22T00:13:10;38.75;;;23.02;;
24873;SDS011;12945;42.648;23.370;2022-10-22T00:15:35;37.65;;;21.70;;
24873;SDS011;12945;42.648;23.370;2022-10-22T00:18:01;34.95;;;21.50;;
24873;SDS011;12945;42.648;23.370;2022-10-22T00:20:26;40.17;;;22.20;;
24873;SDS011;12945;42.648;23.370;2022-10-22T00:22:51;36.65;;;21.40;;
24873;SDS011;12945;42.648;23.370;2022-10-22T00:25:17;41.08;;;24.13;;
24873;SDS011;12945;42.648;23.370;2022-10-22T00:27:42;36.83;;;22.08;;
24873;SDS011;12945;42.648;23.370;2022-10-22T00:30:08;33.08;;;20.58;;
24873;SDS011;12945;42.648;23.370;2022-10-22T00:32:33;37.45;;;21.55;;
24873;SDS011;12945;42.648;23.370;2022-10-22T00:34:58;37.20;;;21.30;;
24873;SDS011;12945;42.648;23.370;2022-10-22T00:37:24;34.25;;;20.88;;
24873;SDS011;12945;42.648;23.370;2022-10-22T00:39:49;37.10;;;21.58;;
24873;SDS011;12945;42.648;23.370;2022-10-22T00:42:18;37.65;;;21.50;;
24873;SDS011;12945;42.648;23.370;2022-10-22T00:47:34;36.92;;;21.65;;
24873;SDS011;12945;42.648;23.370;2022-10-22T00:50:01;38.40;;;21.90;;
24873;SDS011;12945;42.648;23.370;2022-10-22T00:52:27;36.65;;;21.45;;
24873;SDS011;12945;42.648;23.370;2022-10-22T00:54:53;36.20;;;21.55;;
24873;SDS011;12945;42.648;23.370;2022-10-22T01:00:21;36.97;;;21.20;;
24873;SDS011;12945;42.648;23.370;2022-10-22T01:02:47;33.25;;;20.83;;
24873;SDS011;12945;42.648;23.370;2022-10-22T01:05:13;34.05;;;21.00;;
24873;SDS011;12945;42.648;23.370;2022-10-22T01:13:38;37.15;;;21.98;;
24873;SDS011;12945;42.648;23.370;2022-10-22T01:16:10;35.92;;;21.48;;
24873;SDS011;12945;42.648;23.370;2022-10-22T01:21:31;44.13;;;23.10;;
24873;SDS011;12945;42.648;23.370;2022-10-22T01:26:42;36.67;;;22.08;;
24873;SDS011;12945;42.648;23.370;2022-10-22T01:29:24;34.40;;;22.40;;
24873;SDS011;12945;42.648;23.370;2022-10-22T01:31:52;36.67;;;21.88;;
24873;SDS011;12945;42.648;23.370;2022-10-22T01:34:18;38.75;;;22.08;;
24873;SDS011;12945;42.648;23.370;2022-10-22T01:36:44;36.05;;;20.33;;
24873;SDS011;12945;42.648;23.370;2022-10-22T01:39:11;36.85;;;22.13;;
24873;SDS011;12945;42.648;23.370;2022-10-22T01:41:38;36.85;;;21.23;;
24873;SDS011;12945;42.648;23.370;2022-10-22T01:44:03;41.88;;;22.60;;
24873;SDS011;12945;42.648;23.370;2022-10-22T01:46:29;38.45;;;21.88;;
24873;SDS011;12945;42.648;23.370;2022-10-22T01:49:16;32.05;;;21.10;;
24873;SDS011;12945;42.648;23.370;2022-10-22T01:54:26;37.25;;;22.05;;
24873;SDS011;12945;42.648;23.370;2022-10-22T02:02:02;33.95;;;21.65;;
24873;SDS011;12945;42.648;23.370;2022-10-22T02:04:31;40.08;;;22.05;;
24873;SDS011;12945;42.648;23.370;2022-10-22T02:06:59;35.90;;;20.73;;
24873;SDS011;12945;42.648;23.370;2022-10-22T02:09:25;33.78;;;20.52;;
24873;SDS011;12945;42.648;23.370;2022-10-22T02:11:52;37.38;;;22.27;;
24873;SDS011;12945;42.648;23.370;2022-10-22T02:14:18;32.70;;;21.25;;
24873;SDS011;12945;42.648;23.370;2022-10-22T02:16:45;31.95;;;21.27;;
24873;SDS011;12945;42.648;23.370;2022-10-22T02:19:24;36.10;;;21.45;;
24873;SDS011;12945;42.648;23.370;2022-10-22T02:21:50;40.72;;;21.83;;
24873;SDS011;12945;42.648;23.370;2022-10-22T02:24:16;38.47;;;22.63;;
24873;SDS011;12945;42.648;23.370;2022-10-22T02:26:43;39.55;;;22.17;;
24873;SDS011;12945;42.648;23.370;2022-10-22T02:29:29;38.80;;;24.23;;
24873;SDS011;12945;42.648;23.370;2022-10-22T02:31:58;35.13;;;21.65;;
24873;SDS011;12945;42.648;23.370;2022-10-22T02:34:26;34.58;;;22.17;;
24873;SDS011;12945;42.648;23.370;2022-10-22T02:36:52;35.50;;;21.42;;
24873;SDS011;12945;42.648;23.370;2022-10-22T02:39:18;40.42;;;22.83;;
24873;SDS011;12945;42.648;23.370;2022-10-22T02:41:44;45.05;;;26.23;;
24873;SDS011;12945;42.648;23.370;2022-10-22T02:44:10;41.50;;;25.10;;
24873;SDS011;12945;42.648;23.370;2022-10-22T02:46:36;61.88;;;34.08;;
24873;SDS011;12945;42.648;23.370;2022-10-22T02:49:01;57.08;;;33.92;;
24873;SDS011;12945;42.648;23.370;2022-10-22T02:51:26;63.30;;;37.60;;
24873;SDS011;12945;42.648;23.370;2022-10-22T02:53:52;46.83;;;29.02;;
24873;SDS011;12945;42.648;23.370;2022-10-22T02:56:17;46.45;;;27.02;;
24873;SDS011;12945;42.648;23.370;2022-10-22T02:58:42;44.17;;;24.10;;
24873;SDS011;12945;42.648;23.370;2022-10-22T03:01:07;40.35;;;24.10;;
24873;SDS011;12945;42.648;23.370;2022-10-22T03:03:33;47.30;;;23.02;;
24873;SDS011;12945;42.648;23.370;2022-10-22T03:05:58;40.67;;;23.05;;
24873;SDS011;12945;42.648;23.370;2022-10-22T03:08:23;39.88;;;24.15;;
24873;SDS011;12945;42.648;23.370;2022-10-22T03:10:49;42.90;;;24.58;;
24873;SDS011;12945;42.648;23.370;2022-10-22T03:13:14;45.80;;;25.70;;
24873;SDS011;12945;42.648;23.370;2022-10-22T03:15:39;46.03;;;24.65;;
24873;SDS011;12945;42.648;23.370;2022-10-22T03:18:04;53.65;;;25.40;;
24873;SDS011;12945;42.648;23.370;2022-10-22T03:20:30;42.85;;;23.27;;
24873;SDS011;12945;42.648;23.370;2022-10-22T03:22:55;44.83;;;25.38;;
24873;SDS011;12945;42.648;23.370;2022-10-22T03:25:21;37.35;;;22.75;;
24873;SDS011;12945;42.648;23.370;2022-10-22T03:27:48;36.78;;;22.80;;
24873;SDS011;12945;42.648;23.370;2022-10-22T03:30:14;39.60;;;23.38;;
24873;SDS011;12945;42.648;23.370;2022-10-22T03:32:39;41.33;;;24.77;;
24873;SDS011;12945;42.648;23.370;2022-10-22T03:35:04;40.67;;;24.25;;
24873;SDS011;12945;42.648;23.370;2022-10-22T03:37:30;43.97;;;25.42;;
24873;SDS011;12945;42.648;23.370;2022-10-22T03:39:56;42.53;;;21.17;;
24873;SDS011;12945;42.648;23.370;2022-10-22T03:42:21;37.05;;;21.75;;
24873;SDS011;12945;42.648;23.370;2022-10-22T03:44:47;34.85;;;20.23;;
24873;SDS011;12945;42.648;23.370;2022-10-22T03:47:12;38.30;;;21.95;;
24873;SDS011;12945;42.648;23.370;2022-10-22T03:49:37;34.42;;;19.90;;
24873;SDS011;12945;42.648;23.370;2022-10-22T03:52:06;41.20;;;21.38;;
24873;SDS011;12945;42.648;23.370;2022-10-22T03:54:32;35.17;;;21.65;;
24873;SDS011;12945;42.648;23.370;2022-10-22T03:56:57;36.78;;;21.30;;
24873;SDS011;12945;42.648;23.370;2022-10-22T03:59:22;35.03;;;19.83;;
24873;SDS011;12945;42.648;23.370;2022-10-22T04:01:48;39.45;;;22.98;;
24873;SDS011;12945;42.648;23.370;2022-10-22T04:04:13;36.97;;;24.60;;
24873;SDS011;12945;42.648;23.370;2022-10-22T04:06:38;34.20;;;20.95;;
24873;SDS011;12945;42.648;23.370;2022-10-22T04:09:04;32.67;;;20.08;;
24873;SDS011;12945;42.648;23.370;2022-10-22T04:11:29;31.52;;;20.90;;
24873;SDS011;12945;42.648;23.370;2022-10-22T04:13:54;36.13;;;21.75;;
24873;SDS011;12945;42.648;23.370;2022-10-22T04:16:20;35.53;;;22.25;;
24873;SDS011;12945;42.648;23.370;2022-10-22T04:18:46;38.58;;;21.40;;
24873;SDS011;12945;42.648;23.370;2022-10-22T04:21:12;38.95;;;21.70;;
24873;SDS011;12945;42.648;23.370;2022-10-22T04:23:38;40.20;;;21.05;;
24873;SDS011;12945;42.648;23.370;2022-10-22T04:26:05;38.67;;;22.15;;
24873;SDS011;12945;42.648;23.370;2022-10-22T04:28:30;28.60;;;18.55;;
24873;SDS011;12945;42.648;23.370;2022-10-22T04:30:56;25.45;;;15.80;;
24873;SDS011;12945;42.648;23.370;2022-10-22T04:33:21;21.60;;;14.13;;
24873;SDS011;12945;42.648;23.370;2022-10-22T04:35:46;28.35;;;15.27;;
24873;SDS011;12945;42.648;23.370;2022-10-22T04:38:12;20.77;;;14.30;;
24873;SDS011;12945;42.648;23.370;2022-10-22T04:40:37;23.17;;;14.80;;
24873;SDS011;12945;42.648;23.370;2022-10-22T04:43:02;22.00;;;14.50;;
24873;SDS011;12945;42.648;23.370;2022-10-22T04:45:28;25.55;;;14.90;;
24873;SDS011;12945;42.648;23.370;2022-10-22T04:47:53;21.88;;;15.32;;
24873;SDS011;12945;42.648;23.370;2022-10-22T04:50:18;24.02;;;14.48;;
24873;SDS011;12945;42.648;23.370;2022-10-22T04:52:44;24.77;;;15.25;;
24873;SDS011;12945;42.648;23.370;2022-10-22T04:55:09;28.85;;;14.75;;
24873;SDS011;12945;42.648;23.370;2022-10-22T04:57:34;23.70;;;15.15;;
24873;SDS011;12945;42.648;23.370;2022-10-22T05:00:00;21.67;;;14.25;;
24873;SDS011;12945;42.648;23.370;2022-10-22T05:02:25;22.38;;;15.18;;
24873;SDS011;12945;42.648;23.370;2022-10-22T05:04:50;23.23;;;14.73;;
24873;SDS011;12945;42.648;23.370;2022-10-22T05:07:15;25.05;;;15.48;;
24873;SDS011;12945;42.648;23.370;2022-10-22T05:09:41;25.20;;;15.18;;
24873;SDS011;12945;42.648;23.370;2022-10-22T05:12:06;30.35;;;15.05;;
24873;SDS011;12945;42.648;23.370;2022-10-22T05:14:31;22.70;;;15.18;;
24873;SDS011;12945;42.648;23.370;2022-10-22T05:16:57;24.08;;;15.80;;
24873;SDS011;12945;42.648;23.370;2022-10-22T05:19:24;24.17;;;16.25;;
24873;SDS011;12945;42.648;23.370;2022-10-22T05:21:50;31.80;;;17.70;;
24873;SDS011;12945;42.648;23.370;2022-10-22T05:24:16;31.20;;;17.15;;
24873;SDS011;12945;42.648;23.370;2022-10-22T05:26:41;32.05;;;17.20;;
24873;SDS011;12945;42.648;23.370;2022-10-22T05:29:06;29.10;;;17.58;;
24873;SDS011;12945;42.648;23.370;2022-10-22T05:31:32;24.90;;;16.08;;
24873;SDS011;12945;42.648;23.370;2022-10-22T05:33:57;28.65;;;17.08;;
24873;SDS011;12945;42.648;23.370;2022-10-22T05:36:22;29.05;;;15.90;;
24873;SDS011;12945;42.648;23.370;2022-10-22T05:38:48;27.33;;;16.80;;
24873;SDS011;12945;42.648;23.370;2022-10-22T05:41:17;31.35;;;17.33;;
24873;SDS011;12945;42.648;23.370;2022-10-22T05:43:43;41.93;;;18.40;;
24873;SDS011;12945;42.648;23.370;2022-10-22T05:46:09;33.00;;;19.17;;
24873;SDS011;12945;42.648;23.370;2022-10-22T05:48:35;36.47;;;18.90;;
24873;SDS011;12945;42.648;23.370;2022-10-22T05:51:05;34.72;;;19.48;;
24873;SDS011;12945;42.648;23.370;2022-10-22T05:53:34;35.35;;;19.08;;
24873;SDS011;12945;42.648;23.370;2022-10-22T05:58:35;36.70;;;18.77;;
24873;SDS011;12945;42.648;23.370;2022-10-22T06:01:05;26.75;;;17.30;;
24873;SDS011;12945;42.648;23.370;2022-10-22T06:03:30;31.45;;;18.15;;
24873;SDS011;12945;42.648;23.370;2022-10-22T06:05:56;41.38;;;21.17;;
24873;SDS011;12945;42.648;23.370;2022-10-22T06:08:22;38.17;;;22.23;;
24873;SDS011;12945;42.648;23.370;2022-10-22T06:10:47;41.42;;;23.85;;
24873;SDS011;12945;42.648;23.370;2022-10-22T06:13:12;36.20;;;22.45;;
24873;SDS011;12945;42.648;23.370;2022-10-22T06:15:37;36.13;;;21.52;;
24873;SDS011;12945;42.648;23.370;2022-10-22T06:18:03;38.53;;;22.15;;
24873;SDS011;12945;42.648;23.370;2022-10-22T06:20:28;46.00;;;23.52;;
24873;SDS011;12945;42.648;23.370;2022-10-22T06:22:53;44.67;;;24.63;;
24873;SDS011;12945;42.648;23.370;2022-10-22T06:25:19;50.60;;;23.83;;
24873;SDS011;12945;42.648;23.370;2022-10-22T06:27:48;47.83;;;25.25;;
24873;SDS011;12945;42.648;23.370;2022-10-22T06:30:13;51.92;;;25.27;;
24873;SDS011;12945;42.648;23.370;2022-10-22T06:32:38;41.17;;;25.05;;
24873;SDS011;12945;42.648;23.370;2022-10-22T06:35:04;48.15;;;25.95;;
24873;SDS011;12945;42.648;23.370;2022-10-22T06:37:29;42.50;;;26.58;;
24873;SDS011;12945;42.648;23.370;2022-10-22T06:39:54;51.03;;;26.58;;
24873;SDS011;12945;42.648;23.370;2022-10-22T06:42:20;41.13;;;27.02;;
24873;SDS011;12945;42.648;23.370;2022-10-22T06:44:45;40.88;;;25.92;;
24873;SDS011;12945;42.648;23.370;2022-10-22T06:47:10;45.58;;;25.90;;
24873;SDS011;12945;42.648;23.370;2022-10-22T06:49:35;53.22;;;26.38;;
24873;SDS011;12945;42.648;23.370;2022-10-22T06:52:01;45.13;;;26.63;;
24873;SDS011;12945;42.648;23.370;2022-10-22T06:54:26;42.05;;;26.27;;
24873;SDS011;12945;42.648;23.370;2022-10-22T06:56:51;51.45;;;27.85;;
24873;SDS011;12945;42.648;23.370;2022-10-22T06:59:17;43.15;;;25.88;;
24873;SDS011;12945;42.648;23.370;2022-10-22T07:01:42;49.35;;;27.65;;
24873;SDS011;12945;42.648;23.370;2022-10-22T07:04:09;46.13;;;26.67;;
24873;SDS011;12945;42.648;23.370;2022-10-22T07:06:34;48.03;;;25.77;;
24873;SDS011;12945;42.648;23.370;2022-10-22T07:08:59;45.35;;;26.17;;
24873;SDS011;12945;42.648;23.370;2022-10-22T07:11:29;46.10;;;26.13;;
24873;SDS011;12945;42.648;23.370;2022-10-22T07:13:55;50.43;;;27.30;;
24873;SDS011;12945;42.648;23.370;2022-10-22T07:16:21;48.90;;;27.23;;
24873;SDS011;12945;42.648;23.370;2022-10-22T07:18:46;42.85;;;25.63;;
24873;SDS011;12945;42.648;23.370;2022-10-22T07:21:12;42.70;;;26.20;;
24873;SDS011;12945;42.648;23.370;2022-10-22T07:23:38;49.63;;;26.88;;
24873;SDS011;12945;42.648;23.370;2022-10-22T07:26:03;56.10;;;25.75;;
24873;SDS011;12945;42.648;23.370;2022-10-22T07:28:31;38.63;;;24.45;;
24873;SDS011;12945;42.648;23.370;2022-10-22T07:30:57;33.15;;;22.63;;
24873;SDS011;12945;42.648;23.370;2022-10-22T07:33:22;35.70;;;22.20;;
24873;SDS011;12945;42.648;23.370;2022-10-22T07:35:48;36.17;;;22.13;;
24873;SDS011;12945;42.648;23.370;2022-10-22T07:38:13;52.03;;;24.00;;
24873;SDS011;12945;42.648;23.370;2022-10-22T07:40:38;48.85;;;24.85;;
24873;SDS011;12945;42.648;23.370;2022-10-22T07:43:04;46.20;;;26.13;;
24873;SDS011;12945;42.648;23.370;2022-10-22T07:45:29;35.65;;;23.95;;
24873;SDS011;12945;42.648;23.370;2022-10-22T07:47:54;52.65;;;24.35;;
24873;SDS011;12945;42.648;23.370;2022-10-22T07:50:20;34.15;;;21.00;;
24873;SDS011;12945;42.648;23.370;2022-10-22T07:52:45;39.22;;;24.15;;
24873;SDS011;12945;42.648;23.370;2022-10-22T07:55:11;43.10;;;22.92;;
24873;SDS011;12945;42.648;23.370;2022-10-22T07:57:37;40.55;;;24.45;;
24873;SDS011;12945;42.648;23.370;2022-10-22T08:00:03;41.47;;;24.42;;
24873;SDS011;12945;42.648;23.370;2022-10-22T08:02:29;43.30;;;24.63;;
24873;SDS011;12945;42.648;23.370;2022-10-22T08:04:54;38.85;;;24.77;;
24873;SDS011;12945;42.648;23.370;2022-10-22T08:07:21;35.42;;;23.20;;
24873;SDS011;12945;42.648;23.370;2022-10-22T08:09:46;41.03;;;25.10;;
24873;SDS011;12945;42.648;23.370;2022-10-22T08:12:11;41.33;;;24.08;;
24873;SDS011;12945;42.648;23.370;2022-10-22T08:14:37;43.78;;;23.80;;
24873;SDS011;12945;42.648;23.370;2022-10-22T08:17:02;36.55;;;23.65;;
24873;SDS011;12945;42.648;23.370;2022-10-22T08:19:27;37.38;;;23.25;;
24873;SDS011;12945;42.648;23.370;2022-10-22T08:21:53;39.45;;;24.15;;
24873;SDS011;12945;42.648;23.370;2022-10-22T08:27:22;35.80;;;23.60;;
24873;SDS011;12945;42.648;23.370;2022-10-22T08:29:47;32.55;;;22.23;;
24873;SDS011;12945;42.648;23.370;2022-10-22T08:32:12;42.97;;;22.75;;
24873;SDS011;12945;42.648;23.370;2022-10-22T08:34:38;44.72;;;22.52;;
24873;SDS011;12945;42.648;23.370;2022-10-22T08:37:03;40.45;;;23.20;;
24873;SDS011;12945;42.648;23.370;2022-10-22T08:39:29;35.38;;;21.52;;
24873;SDS011;12945;42.648;23.370;2022-10-22T08:49:44;34.10;;;22.67;;
24873;SDS011;12945;42.648;23.370;2022-10-22T08:52:11;41.20;;;24.38;;
24873;SDS011;12945;42.648;23.370;2022-10-22T08:57:09;35.83;;;23.77;;
24873;SDS011;12945;42.648;23.370;2022-10-22T08:59:40;45.75;;;24.38;;
24873;SDS011;12945;42.648;23.370;2022-10-22T09:04:55;41.70;;;22.63;;
24873;SDS011;12945;42.648;23.370;2022-10-22T09:07:23;33.17;;;21.95;;
24873;SDS011;12945;42.648;23.370;2022-10-22T09:09:49;33.63;;;21.90;;
24873;SDS011;12945;42.648;23.370;2022-10-22T09:12:16;37.13;;;20.70;;
24873;SDS011;12945;42.648;23.370;2022-10-22T09:14:42;35.47;;;20.77;;
24873;SDS011;12945;42.648;23.370;2022-10-22T09:19:39;33.22;;;21.13;;
24873;SDS011;12945;42.648;23.370;2022-10-22T09:22:11;31.73;;;21.73;;
24873;SDS011;12945;42.648;23.370;2022-10-22T09:24:43;30.95;;;20.65;;
24873;SDS011;12945;42.648;23.370;2022-10-22T09:27:16;29.35;;;20.45;;
24873;SDS011;12945;42.648;23.370;2022-10-22T09:29:42;31.83;;;20.70;;
24873;SDS011;12945;42.648;23.370;2022-10-22T09:32:08;31.83;;;21.90;;
24873;SDS011;12945;42.648;23.370;2022-10-22T09:34:33;35.20;;;20.17;;
24873;SDS011;12945;42.648;23.370;2022-10-22T09:36:59;36.25;;;18.88;;
24873;SDS011;12945;42.648;23.370;2022-10-22T09:39:44;30.30;;;20.25;;
24873;SDS011;12945;42.648;23.370;2022-10-22T09:42:10;31.88;;;18.88;;
24873;SDS011;12945;42.648;23.370;2022-10-22T09:44:38;34.00;;;18.92;;
24873;SDS011;12945;42.648;23.370;2022-10-22T09:47:25;34.08;;;18.75;;
24873;SDS011;12945;42.648;23.370;2022-10-22T09:49:49;31.77;;;18.75;;
24873;SDS011;12945;42.648;23.370;2022-10-22T09:52:23;28.85;;;18.63;;
24873;SDS011;12945;42.648;23.370;2022-10-22T09:54:50;28.73;;;19.60;;
24873;SDS011;12945;42.648;23.370;2022-10-22T09:57:17;33.60;;;19.23;;
24873;SDS011;12945;42.648;23.370;2022-10-22T09:59:47;35.37;;;20.23;;
24873;SDS011;12945;42.648;23.370;2022-10-22T10:02:13;28.65;;;19.35;;
24873;SDS011;12945;42.648;23.370;2022-10-22T10:04:40;32.03;;;18.88;;
24873;SDS011;12945;42.648;23.370;2022-10-22T10:07:14;28.70;;;18.75;;
24873;SDS011;12945;42.648;23.370;2022-10-22T10:09:39;32.72;;;18.20;;
24873;SDS011;12945;42.648;23.370;2022-10-22T10:17:29;32.67;;;18.17;;
24873;SDS011;12945;42.648;23.370;2022-10-22T10:23:02;26.55;;;18.38;;
24873;SDS011;12945;42.648;23.370;2022-10-22T10:28:49;29.50;;;17.38;;
24873;SDS011;12945;42.648;23.370;2022-10-22T10:48:34;21.52;;;15.40;;
24873;SDS011;12945;42.648;23.370;2022-10-22T10:51:17;24.77;;;16.00;;
24873;SDS011;12945;42.648;23.370;2022-10-22T10:53:54;23.45;;;15.13;;
24873;SDS011;12945;42.648;23.370;2022-10-22T11:01:46;28.25;;;15.02;;
24873;SDS011;12945;42.648;23.370;2022-10-22T11:07:00;21.80;;;14.27;;
24873;SDS011;12945;42.648;23.370;2022-10-22T11:09:36;24.98;;;14.35;;
24873;SDS011;12945;42.648;23.370;2022-10-22T11:12:04;23.17;;;14.05;;
24873;SDS011;12945;42.648;23.370;2022-10-22T11:14:43;25.92;;;13.70;;
24873;SDS011;12945;42.648;23.370;2022-10-22T11:17:10;21.27;;;14.02;;
24873;SDS011;12945;42.648;23.370;2022-10-22T11:19:44;21.13;;;12.55;;
24873;SDS011;12945;42.648;23.370;2022-10-22T11:27:45;21.58;;;12.90;;
24873;SDS011;12945;42.648;23.370;2022-10-22T11:30:13;27.05;;;14.15;;
24873;SDS011;12945;42.648;23.370;2022-10-22T11:32:40;15.13;;;11.70;;
24873;SDS011;12945;42.648;23.370;2022-10-22T11:35:08;23.10;;;12.63;;
24873;SDS011;12945;42.648;23.370;2022-10-22T11:37:36;16.50;;;11.27;;
24873;SDS011;12945;42.648;23.370;2022-10-22T11:40:04;23.60;;;11.85;;
24873;SDS011;12945;42.648;23.370;2022-10-22T11:47:26;16.63;;;10.43;;
24873;SDS011;12945;42.648;23.370;2022-10-22T11:50:02;18.20;;;11.07;;
24873;SDS011;12945;42.648;23.370;2022-10-22T11:52:44;18.48;;;10.68;;
24873;SDS011;12945;42.648;23.370;2022-10-22T11:57:58;15.40;;;10.80;;
24873;SDS011;12945;42.648;23.370;2022-10-22T12:05:41;16.80;;;9.75;;
24873;SDS011;12945;42.648;23.370;2022-10-22T12:08:20;23.27;;;10.52;;
24873;SDS011;12945;42.648;23.370;2022-10-22T12:13:25;17.08;;;10.45;;
24873;SDS011;12945;42.648;23.370;2022-10-22T12:15:52;14.43;;;10.32;;
24873;SDS011;12945;42.648;23.370;2022-10-22T12:18:18;16.42;;;10.13;;
24873;SDS011;12945;42.648;23.370;2022-10-22T12:20:51;18.75;;;9.85;;
24873;SDS011;12945;42.648;23.370;2022-10-22T12:23:16;14.27;;;9.77;;
24873;SDS011;12945;42.648;23.370;2022-10-22T12:25:42;14.20;;;9.60;;
24873;SDS011;12945;42.648;23.370;2022-10-22T12:28:09;13.25;;;9.20;;
24873;SDS011;12945;42.648;23.370;2022-10-22T12:30:35;18.17;;;9.73;;
24873;SDS011;12945;42.648;23.370;2022-10-22T12:33:04;16.10;;;9.80;;
24873;SDS011;12945;42.648;23.370;2022-10-22T12:35:31;14.23;;;9.38;;
24873;SDS011;12945;42.648;23.370;2022-10-22T12:37:59;22.23;;;9.82;;
24873;SDS011;12945;42.648;23.370;2022-10-22T12:40:28;13.23;;;9.13;;
24873;SDS011;12945;42.648;23.370;2022-10-22T12:43:01;12.70;;;8.90;;
24873;SDS011;12945;42.648;23.370;2022-10-22T12:45:30;14.15;;;8.90;;
24873;SDS011;12945;42.648;23.370;2022-10-22T12:48:00;16.35;;;8.48;;
24873;SDS011;12945;42.648;23.370;2022-10-22T12:50:33;14.40;;;8.70;;
24873;SDS011;12945;42.648;23.370;2022-10-22T12:53:01;17.85;;;8.30;;
24873;SDS011;12945;42.648;23.370;2022-10-22T12:55:27;17.23;;;9.15;;
24873;SDS011;12945;42.648;23.370;2022-10-22T12:57:55;27.70;;;8.90;;
24873;SDS011;12945;42.648;23.370;2022-10-22T13:00:21;16.88;;;8.80;;
24873;SDS011;12945;42.648;23.370;2022-10-22T13:02:48;13.35;;;8.68;;
24873;SDS011;12945;42.648;23.370;2022-10-22T13:07:43;18.92;;;10.48;;
24873;SDS011;12945;42.648;23.370;2022-10-22T13:10:14;13.40;;;8.88;;
24873;SDS011;12945;42.648;23.370;2022-10-22T13:12:43;14.10;;;8.55;;
24873;SDS011;12945;42.648;23.370;2022-10-22T13:18:05;18.45;;;8.45;;
24873;SDS011;12945;42.648;23.370;2022-10-22T13:20:30;19.00;;;8.38;;
24873;SDS011;12945;42.648;23.370;2022-10-22T13:23:03;17.48;;;8.90;;
24873;SDS011;12945;42.648;23.370;2022-10-22T13:25:29;12.52;;;8.35;;
24873;SDS011;12945;42.648;23.370;2022-10-22T13:30:34;15.27;;;8.27;;
24873;SDS011;12945;42.648;23.370;2022-10-22T13:33:03;10.63;;;8.35;;
24873;SDS011;12945;42.648;23.370;2022-10-22T13:35:30;20.38;;;9.77;;
24873;SDS011;12945;42.648;23.370;2022-10-22T13:37:57;17.20;;;8.23;;
24873;SDS011;12945;42.648;23.370;2022-10-22T13:40:22;16.08;;;8.98;;
24873;SDS011;12945;42.648;23.370;2022-10-22T13:42:47;14.02;;;8.90;;
24873;SDS011;12945;42.648;23.370;2022-10-22T13:45:13;14.20;;;8.07;;
24873;SDS011;12945;42.648;23.370;2022-10-22T13:47:38;12.75;;;8.10;;
24873;SDS011;12945;42.648;23.370;2022-10-22T13:50:09;14.50;;;8.48;;
24873;SDS011;12945;42.648;23.370;2022-10-22T13:52:40;14.85;;;8.07;;
24873;SDS011;12945;42.648;23.370;2022-10-22T13:57:43;19.42;;;9.63;;
24873;SDS011;12945;42.648;23.370;2022-10-22T14:00:16;16.52;;;8.45;;
24873;SDS011;12945;42.648;23.370;2022-10-22T14:02:42;15.02;;;8.60;;
24873;SDS011;12945;42.648;23.370;2022-10-22T14:05:08;19.30;;;9.30;;
24873;SDS011;12945;42.648;23.370;2022-10-22T14:07:34;18.95;;;9.23;;
24873;SDS011;12945;42.648;23.370;2022-10-22T14:09:59;21.98;;;8.88;;
24873;SDS011;12945;42.648;23.370;2022-10-22T14:12:24;14.68;;;8.07;;
24873;SDS011;12945;42.648;23.370;2022-10-22T14:14:50;20.33;;;9.73;;
24873;SDS011;12945;42.648;23.370;2022-10-22T14:17:15;14.43;;;9.32;;
24873;SDS011;12945;42.648;23.370;2022-10-22T14:19:42;23.23;;;9.82;;
24873;SDS011;12945;42.648;23.370;2022-10-22T14:22:14;17.15;;;9.07;;
24873;SDS011;12945;42.648;23.370;2022-10-22T14:24:40;14.95;;;8.95;;
24873;SDS011;12945;42.648;23.370;2022-10-22T14:27:06;20.20;;;10.13;;
24873;SDS011;12945;42.648;23.370;2022-10-22T14:29:32;16.58;;;9.73;;
24873;SDS011;12945;42.648;23.370;2022-10-22T14:31:57;19.77;;;9.77;;
24873;SDS011;12945;42.648;23.370;2022-10-22T14:34:23;22.20;;;10.48;;
24873;SDS011;12945;42.648;23.370;2022-10-22T14:36:48;16.88;;;10.98;;
24873;SDS011;12945;42.648;23.370;2022-10-22T14:39:13;19.45;;;10.25;;
24873;SDS011;12945;42.648;23.370;2022-10-22T14:41:39;24.65;;;11.57;;
24873;SDS011;12945;42.648;23.370;2022-10-22T14:44:04;23.38;;;10.82;;
24873;SDS011;12945;42.648;23.370;2022-10-22T14:46:30;22.15;;;10.80;;
24873;SDS011;12945;42.648;23.370;2022-10-22T14:48:55;19.75;;;10.90;;
24873;SDS011;12945;42.648;23.370;2022-10-22T14:51:21;16.33;;;11.38;;
24873;SDS011;12945;42.648;23.370;2022-10-22T14:53:47;18.50;;;10.65;;
24873;SDS011;12945;42.648;23.370;2022-10-22T14:56:13;23.95;;;11.40;;
24873;SDS011;12945;42.648;23.370;2022-10-22T14:58:39;18.38;;;11.02;;
24873;SDS011;12945;42.648;23.370;2022-10-22T15:01:04;33.50;;;12.52;;
24873;SDS011;12945;42.648;23.370;2022-10-22T15:03:30;28.73;;;11.70;;
24873;SDS011;12945;42.648;23.370;2022-10-22T15:05:55;26.00;;;11.52;;
24873;SDS011;12945;42.648;23.370;2022-10-22T15:08:21;26.23;;;11.63;;
24873;SDS011;12945;42.648;23.370;2022-10-22T15:10:59;26.08;;;12.90;;
24873;SDS011;12945;42.648;23.370;2022-10-22T15:13:25;24.45;;;11.80;;
24873;SDS011;12945;42.648;23.370;2022-10-22T15:15:51;18.13;;;11.65;;
24873;SDS011;12945;42.648;23.370;2022-10-22T15:18:16;22.50;;;11.82;;
24873;SDS011;12945;42.648;23.370;2022-10-22T15:20:41;23.35;;;11.57;;
24873;SDS011;12945;42.648;23.370;2022-10-22T15:23:07;25.17;;;11.55;;
24873;SDS011;12945;42.648;23.370;2022-10-22T15:25:32;45.28;;;22.65;;
24873;SDS011;12945;42.648;23.370;2022-10-22T15:27:57;51.50;;;31.65;;
24873;SDS011;12945;42.648;23.370;2022-10-22T15:30:23;35.55;;;20.23;;
24873;SDS011;12945;42.648;23.370;2022-10-22T15:32:48;52.10;;;24.05;;
24873;SDS011;12945;42.648;23.370;2022-10-22T15:35:13;50.47;;;25.38;;
24873;SDS011;12945;42.648;23.370;2022-10-22T15:38:02;39.10;;;20.90;;
24873;SDS011;12945;42.648;23.370;2022-10-22T15:40:30;38.03;;;15.80;;
24873;SDS011;12945;42.648;23.370;2022-10-22T15:42:55;36.05;;;16.25;;
24873;SDS011;12945;42.648;23.370;2022-10-22T15:45:21;48.33;;;20.30;;
24873;SDS011;12945;42.648;23.370;2022-10-22T15:47:48;30.13;;;17.30;;
24873;SDS011;12945;42.648;23.370;2022-10-22T15:50:13;34.17;;;17.45;;
24873;SDS011;12945;42.648;23.370;2022-10-22T15:52:38;42.67;;;17.80;;
24873;SDS011;12945;42.648;23.370;2022-10-22T15:55:04;53.58;;;26.20;;
24873;SDS011;12945;42.648;23.370;2022-10-22T15:57:34;41.42;;;18.42;;
24873;SDS011;12945;42.648;23.370;2022-10-22T15:59:59;50.97;;;24.65;;
24873;SDS011;12945;42.648;23.370;2022-10-22T16:02:25;54.25;;;21.23;;
24873;SDS011;12945;42.648;23.370;2022-10-22T16:04:50;40.72;;;18.75;;